createdAt,value
2023-02-19T00:02:33.603Z,62.16
2023-02-19T00:06:37.734Z,62.61
2023-02-19T00:10:41.380Z,62.86
2023-02-19T00:14:45.040Z,62.99
2023-02-19T00:18:50.312Z,63.52
2023-02-19T00:22:54.001Z,63.21
2023-02-19T00:26:57.556Z,63.83
2023-02-19T00:31:06.599Z,64.51
2023-02-19T00:35:11.398Z,64.78
2023-02-19T00:39:18.983Z,64.73
2023-02-19T00:43:22.788Z,65.07
2023-02-19T00:47:26.524Z,65.25
2023-02-19T00:51:33.464Z,65.11
2023-02-19T00:55:37.052Z,65.34
2023-02-19T00:59:40.629Z,65.31
2023-02-19T01:03:44.382Z,65.63
2023-02-19T01:07:49.255Z,65.50
2023-02-19T01:11:52.945Z,65.12
2023-02-19T01:15:56.781Z,65.66
2023-02-19T01:20:00.210Z,65.40
2023-02-19T01:24:05.275Z,65.72
2023-02-19T01:28:09.170Z,65.69
2023-02-19T01:32:12.755Z,65.66
2023-02-19T01:36:17.952Z,65.94
2023-02-19T01:40:23.610Z,65.84
2023-02-19T01:45:15.779Z,65.53
2023-02-19T01:49:23.559Z,66.06
2023-02-19T01:53:31.783Z,66.18
2023-02-19T01:57:42.552Z,66.27
2023-02-19T02:01:46.369Z,66.12
2023-02-19T02:05:58.713Z,66.22
2023-02-19T02:10:21.589Z,66.02
2023-02-19T02:14:29.690Z,66.43
2023-02-19T02:18:45.405Z,66.51
2023-02-19T02:22:56.973Z,66.61
2023-02-19T02:27:15.794Z,66.41
2023-02-19T02:31:26.873Z,66.69
2023-02-19T02:35:36.051Z,67.01
2023-02-19T02:39:40.558Z,67.49
2023-02-19T02:43:43.594Z,67.32
2023-02-19T02:47:52.233Z,67.88
2023-02-19T02:51:58.077Z,67.97
2023-02-19T02:56:03.032Z,68.14
2023-02-19T03:00:07.311Z,68.39
2023-02-19T03:04:16.401Z,68.97
2023-02-19T03:08:25.052Z,69.17
2023-02-19T03:12:49.619Z,69.77
2023-02-19T03:17:17.317Z,70.07
2023-02-19T03:21:24.082Z,69.99
2023-02-19T03:25:47.711Z,69.92
2023-02-19T03:29:55.097Z,69.93
2023-02-19T03:34:01.568Z,69.19
2023-02-19T03:38:13.319Z,69.02
2023-02-19T03:42:22.580Z,68.61
2023-02-19T03:46:32.894Z,68.30
2023-02-19T03:50:44.769Z,67.96
2023-02-19T03:54:56.967Z,67.81
2023-02-19T03:59:07.168Z,67.98
2023-02-19T04:03:18.243Z,68.09
2023-02-19T04:07:22.649Z,67.89
2023-02-19T04:11:29.180Z,68.09
2023-02-19T04:15:35.403Z,67.95
2023-02-19T04:19:42.324Z,67.90
2023-02-19T04:23:47.766Z,68.04
2023-02-19T04:27:53.925Z,68.48
2023-02-19T04:31:57.144Z,68.47
2023-02-19T04:36:00.739Z,68.35
2023-02-19T04:40:04.565Z,68.46
2023-02-19T04:44:09.134Z,68.34
2023-02-19T04:48:12.801Z,68.32
2023-02-19T04:52:15.932Z,68.33
2023-02-19T04:56:20.037Z,68.12
2023-02-19T05:00:25.022Z,68.15
2023-02-19T05:04:28.669Z,68.36
2023-02-19T05:08:32.713Z,68.61
2023-02-19T05:12:36.109Z,68.99
2023-02-19T05:16:41.013Z,68.91
2023-02-19T05:20:44.321Z,69.47
2023-02-19T05:24:47.860Z,69.04
2023-02-19T05:28:52.814Z,69.47
2023-02-19T05:32:57.952Z,69.42
2023-02-19T05:37:01.038Z,69.51
2023-02-19T05:41:13.153Z,69.48
2023-02-19T05:45:16.621Z,69.38
2023-02-19T05:49:21.616Z,69.42
2023-02-19T05:53:25.463Z,69.73
2023-02-19T05:57:28.873Z,69.86
2023-02-19T06:01:33.507Z,69.72
2023-02-19T06:05:38.640Z,70.35
2023-02-19T06:09:42.153Z,70.86
2023-02-19T06:13:45.857Z,71.20
2023-02-19T06:17:49.296Z,71.35
2023-02-19T06:21:53.799Z,71.52
2023-02-19T06:25:57.214Z,72.05
2023-02-19T06:30:00.563Z,72.15
2023-02-19T06:34:06.495Z,71.68
2023-02-19T06:38:11.330Z,71.69
2023-02-19T06:42:14.716Z,71.80
2023-02-19T06:46:18.267Z,71.46
2023-02-19T06:50:21.309Z,71.11
2023-02-19T06:54:27.315Z,70.86
2023-02-19T06:58:31.036Z,70.75
2023-02-19T07:02:34.726Z,70.94
2023-02-19T07:06:39.213Z,70.33
2023-02-19T07:10:44.057Z,70.53
2023-02-19T07:14:48.153Z,70.38
2023-02-19T07:18:51.806Z,70.35
2023-02-19T07:22:54.988Z,70.04
2023-02-19T07:26:59.899Z,70.27
2023-02-19T07:31:03.963Z,70.08
2023-02-19T07:35:08.962Z,70.25
2023-02-19T07:39:14.392Z,70.16
2023-02-19T07:43:19.110Z,69.93
2023-02-19T07:47:22.866Z,69.58
2023-02-19T07:51:26.250Z,69.52
2023-02-19T07:55:30.108Z,69.11
2023-02-19T07:59:36.218Z,68.56
2023-02-19T08:03:40.747Z,68.55
2023-02-19T08:07:43.881Z,68.17
2023-02-19T08:12:04.546Z,67.88
2023-02-19T08:16:26.608Z,67.39
2023-02-19T08:20:38.201Z,67.68
2023-02-19T08:24:43.068Z,67.54
2023-02-19T08:28:46.782Z,67.75
2023-02-19T08:32:51.807Z,67.88
2023-02-19T08:36:55.105Z,66.95
2023-02-19T08:40:58.651Z,66.53
2023-02-19T08:45:01.697Z,66.33
2023-02-19T08:49:14.527Z,66.45
2023-02-19T08:53:17.779Z,66.20
2023-02-19T08:57:20.781Z,65.17
2023-02-19T09:01:24.681Z,65.07
2023-02-19T09:05:29.720Z,65.72
2023-02-19T09:09:33.435Z,65.24
2023-02-19T09:13:36.552Z,66.01
2023-02-19T09:17:39.947Z,63.38
2023-02-19T09:21:45.723Z,63.29
2023-02-19T09:25:48.796Z,61.38
2023-02-19T09:29:52.695Z,60.80
2023-02-19T09:33:55.754Z,62.81
2023-02-19T09:38:03.776Z,63.04
2023-02-19T09:42:16.968Z,62.43
2023-02-19T09:46:28.734Z,63.29
2023-02-19T09:50:38.529Z,62.86
2023-02-19T09:54:44.147Z,62.33
2023-02-19T09:58:50.779Z,62.52
2023-02-19T10:02:58.745Z,62.66
2023-02-19T10:07:03.861Z,61.78
2023-02-19T10:11:14.074Z,61.93
2023-02-19T10:15:21.115Z,63.07
2023-02-19T10:19:24.726Z,63.42
2023-02-19T10:23:28.179Z,63.26
2023-02-19T10:27:33.284Z,63.63
2023-02-19T10:31:36.852Z,62.03
2023-02-19T10:35:54.301Z,59.88
2023-02-19T10:39:57.676Z,59.93
2023-02-19T10:44:09.785Z,59.72
2023-02-19T10:48:26.084Z,59.43
2023-02-19T10:52:31.992Z,60.34
2023-02-19T10:56:35.782Z,59.61
2023-02-19T11:00:40.266Z,58.18
2023-02-19T11:04:44.328Z,57.21
2023-02-19T11:08:54.305Z,58.20
2023-02-19T11:13:00.790Z,57.66
2023-02-19T11:17:06.831Z,57.25
2023-02-19T11:21:29.287Z,57.92
2023-02-19T11:25:48.334Z,57.23
2023-02-19T11:29:52.338Z,55.75
2023-02-19T11:34:01.129Z,55.24
2023-02-19T11:38:04.624Z,54.43
2023-02-19T11:42:25.912Z,55.21
2023-02-19T11:46:37.253Z,53.68
2023-02-19T11:50:54.816Z,53.97
2023-02-19T11:55:10.532Z,55.19
2023-02-19T11:59:22.364Z,54.15
2023-02-19T12:03:37.924Z,56.94
2023-02-19T12:08:13.320Z,55.77
2023-02-19T12:12:28.700Z,52.44
2023-02-19T12:16:35.880Z,54.88
2023-02-19T12:20:49.244Z,54.17
2023-02-19T12:25:24.332Z,53.10
2023-02-19T12:29:41.464Z,55.15
2023-02-19T12:34:13.147Z,56.86
2023-02-19T12:38:25.949Z,58.24
2023-02-19T12:42:46.963Z,60.53
2023-02-19T12:46:54.535Z,59.20
2023-02-19T12:51:04.859Z,58.59
2023-02-19T12:55:21.365Z,58.06
2023-02-19T12:59:35.017Z,57.85
2023-02-19T13:03:43.553Z,59.22
2023-02-19T13:08:01.241Z,59.37
2023-02-19T13:12:08.791Z,58.42
2023-02-19T13:16:19.019Z,57.16
2023-02-19T13:20:29.728Z,56.82
2023-02-19T13:24:37.568Z,56.66
2023-02-19T13:28:57.804Z,56.95
2023-02-19T13:33:14.744Z,57.73
2023-02-19T13:37:19.402Z,54.30
2023-02-19T13:41:29.670Z,55.73
2023-02-19T13:45:36.829Z,55.62
2023-02-19T13:49:45.587Z,55.21
2023-02-19T13:54:00.032Z,55.31
2023-02-19T13:58:36.950Z,55.05
2023-02-19T14:02:40.308Z,55.61
2023-02-19T14:07:17.837Z,55.30
2023-02-19T14:12:00.620Z,55.89
2023-02-19T14:16:04.515Z,54.75
2023-02-19T14:21:07.853Z,55.73
2023-02-19T14:25:26.043Z,54.81
2023-02-19T14:29:30.611Z,54.69
2023-02-19T14:33:37.542Z,55.39
2023-02-19T14:37:42.307Z,55.18
2023-02-19T14:41:48.678Z,55.67
2023-02-19T14:45:56.053Z,54.27
2023-02-19T14:55:29.156Z,54.36
2023-02-19T14:59:32.305Z,54.95
2023-02-19T15:03:38.311Z,55.30
2023-02-19T15:07:44.258Z,54.40
2023-02-19T15:11:49.591Z,54.64
2023-02-19T15:15:53.557Z,54.62
2023-02-19T15:19:59.080Z,53.64
2023-02-19T15:24:04.707Z,55.18
2023-02-19T15:28:23.007Z,53.30
2023-02-19T15:32:28.202Z,54.02
2023-02-19T15:36:35.746Z,54.65
2023-02-19T15:40:39.855Z,54.40
2023-02-19T15:44:50.019Z,54.64
2023-02-19T15:49:01.666Z,55.26
2023-02-19T15:53:09.749Z,54.17
2023-02-19T15:57:18.696Z,54.31
2023-02-19T16:01:26.805Z,55.07
2023-02-19T16:05:30.860Z,54.74
2023-02-19T16:09:37.523Z,57.59
2023-02-19T16:13:40.957Z,58.10
2023-02-19T16:17:47.077Z,57.43
2023-02-19T16:21:50.994Z,58.62
2023-02-19T16:26:00.461Z,58.52
2023-02-19T16:30:08.692Z,59.77
2023-02-19T16:34:20.299Z,59.41
2023-02-19T16:38:23.864Z,59.87
2023-02-19T16:42:27.596Z,59.40
2023-02-19T16:46:31.414Z,59.29
2023-02-19T16:50:36.533Z,58.87
2023-02-19T16:54:39.900Z,58.56
2023-02-19T16:58:43.506Z,58.51
2023-02-19T17:02:48.590Z,57.99
2023-02-19T17:06:53.406Z,57.84
2023-02-19T17:10:56.462Z,58.68
2023-02-19T17:15:00.017Z,58.35
2023-02-19T17:19:05.670Z,57.69
2023-02-19T17:23:11.025Z,57.62
2023-02-19T17:27:14.993Z,58.35
2023-02-19T17:31:18.842Z,58.66
2023-02-19T17:35:22.676Z,58.53
2023-02-19T17:39:27.895Z,58.48
2023-02-19T17:43:31.687Z,59.25
2023-02-19T17:47:34.710Z,58.85
2023-02-19T17:51:38.398Z,58.23
2023-02-19T17:55:42.882Z,58.61
2023-02-19T17:59:46.736Z,58.64
2023-02-19T18:03:50.632Z,58.53
2023-02-19T18:07:53.882Z,58.47
2023-02-19T18:11:58.814Z,60.01
2023-02-19T18:16:01.957Z,60.69
2023-02-19T18:20:08.559Z,61.42
2023-02-19T18:24:12.197Z,61.65
2023-02-19T18:28:17.165Z,62.03
2023-02-19T18:32:21.320Z,62.12
2023-02-19T18:36:24.511Z,62.73
2023-02-19T18:40:29.654Z,62.65
2023-02-19T18:44:34.069Z,62.54
2023-02-19T18:48:38.038Z,62.48
2023-02-19T18:52:41.077Z,61.23
2023-02-19T18:56:45.794Z,61.52
2023-02-19T19:00:50.757Z,60.88
2023-02-19T19:04:56.503Z,60.49
2023-02-19T19:09:00.684Z,59.81
2023-02-19T19:13:03.743Z,59.68
2023-02-19T19:17:08.798Z,59.44
2023-02-19T19:21:12.751Z,59.34
2023-02-19T19:25:16.375Z,59.12
2023-02-19T19:29:23.682Z,58.72
2023-02-19T19:33:28.546Z,59.41
2023-02-19T19:37:32.619Z,59.66
2023-02-19T19:41:35.965Z,60.00
2023-02-19T19:45:42.445Z,60.40
2023-02-19T19:49:48.475Z,60.91
2023-02-19T19:53:51.975Z,61.76
2023-02-19T19:57:55.700Z,62.59
2023-02-19T20:01:59.660Z,62.94
2023-02-19T20:06:04.528Z,64.17
2023-02-19T20:10:14.088Z,63.84
2023-02-19T20:14:18.785Z,63.81
2023-02-19T20:18:22.016Z,64.25
2023-02-19T20:22:26.882Z,64.88
2023-02-19T20:26:31.373Z,64.98
2023-02-19T20:30:35.235Z,65.25
2023-02-19T20:34:38.884Z,65.82
2023-02-19T20:38:44.244Z,65.69
2023-02-19T20:42:48.386Z,65.85
2023-02-19T20:46:54.670Z,65.85
2023-02-19T20:50:59.905Z,66.12
2023-02-19T20:55:05.102Z,65.80
2023-02-19T20:59:08.729Z,66.10
2023-02-19T21:03:12.291Z,66.20
2023-02-19T21:07:16.390Z,66.22
2023-02-19T21:11:21.222Z,66.38
2023-02-19T21:15:25.222Z,66.38
2023-02-19T21:19:28.648Z,66.04
2023-02-19T21:23:32.469Z,65.47
2023-02-19T21:27:37.568Z,65.03
2023-02-19T21:31:42.337Z,64.86
2023-02-19T21:35:45.401Z,64.40
2023-02-19T21:39:49.549Z,63.93
2023-02-19T21:43:54.943Z,63.50
2023-02-19T21:47:58.811Z,63.14
2023-02-19T21:52:02.364Z,62.49
2023-02-19T21:56:05.870Z,62.87
2023-02-19T22:00:12.252Z,62.36
2023-02-19T22:04:18.407Z,62.09
2023-02-19T22:08:22.408Z,62.18
2023-02-19T22:12:25.474Z,61.70
2023-02-19T22:16:30.758Z,61.92
2023-02-19T22:20:34.810Z,62.58
2023-02-19T22:24:38.250Z,62.38
2023-02-19T22:28:42.470Z,62.23
2023-02-19T22:32:47.383Z,62.74
2023-02-19T22:36:51.495Z,63.66
2023-02-19T22:40:55.149Z,64.12
2023-02-19T22:44:58.836Z,64.20
2023-02-19T22:49:05.471Z,64.34
2023-02-19T22:53:08.825Z,64.60
2023-02-19T22:57:12.234Z,64.62
2023-02-19T23:01:16.431Z,63.84
2023-02-19T23:05:23.045Z,64.11
2023-02-19T23:09:29.183Z,64.40
2023-02-19T23:13:32.578Z,64.27
2023-02-19T23:17:36.380Z,63.75
2023-02-19T23:21:41.920Z,64.24
2023-02-19T23:25:45.945Z,63.83
2023-02-19T23:29:49.356Z,64.03
2023-02-19T23:33:52.806Z,63.99
2023-02-19T23:37:57.871Z,63.37
2023-02-19T23:42:01.328Z,63.50
2023-02-19T23:46:05.255Z,63.72
2023-02-19T23:50:09.492Z,63.41
2023-02-19T23:54:14.602Z,64.15
2023-02-19T23:58:18.208Z,63.38
